sensor_id;sensor_type;location;lat;lon;timestamp;P1;durP1;ratioP1;P2;durP2;ratioP2
16994;SDS011;8614;48.522;9.206;2023-06-10T00:01:16;8.83;;;7.93;;
16994;SDS011;8614;48.522;9.206;2023-06-10T00:03:43;8.03;;;6.90;;
16994;SDS011;8614;48.522;9.206;2023-06-10T00:06:10;7.77;;;6.53;;
16994;SDS011;8614;48.522;9.206;2023-06-10T00:08:36;8.00;;;6.50;;
16994;SDS011;8614;48.522;9.206;2023-06-10T00:11:04;7.40;;;6.60;;
16994;SDS011;8614;48.522;9.206;2023-06-10T00:13:31;8.27;;;6.67;;
16994;SDS011;8614;48.522;9.206;2023-06-10T00:15:58;11.13;;;7.20;;
16994;SDS011;8614;48.522;9.206;2023-06-10T00:18:26;8.30;;;6.70;;
16994;SDS011;8614;48.522;9.206;2023-06-10T00:20:56;7.57;;;6.77;;
16994;SDS011;8614;48.522;9.206;2023-06-10T00:23:28;8.23;;;6.63;;
16994;SDS011;8614;48.522;9.206;2023-06-10T00:25:56;8.00;;;6.50;;
16994;SDS011;8614;48.522;9.206;2023-06-10T00:28:22;8.43;;;6.97;;
16994;SDS011;8614;48.522;9.206;2023-06-10T00:30:49;8.50;;;7.60;;
16994;SDS011;8614;48.522;9.206;2023-06-10T00:33:16;7.63;;;6.83;;
16994;SDS011;8614;48.522;9.206;2023-06-10T00:35:44;9.50;;;7.23;;
16994;SDS011;8614;48.522;9.206;2023-06-10T00:38:12;9.60;;;7.07;;
16994;SDS011;8614;48.522;9.206;2023-06-10T00:40:39;8.03;;;7.10;;
16994;SDS011;8614;48.522;9.206;2023-06-10T00:43:06;8.80;;;7.30;;
16994;SDS011;8614;48.522;9.206;2023-06-10T00:45:33;8.93;;;7.13;;
16994;SDS011;8614;48.522;9.206;2023-06-10T00:48:00;8.57;;;7.00;;
16994;SDS011;8614;48.522;9.206;2023-06-10T00:50:29;8.20;;;7.27;;
16994;SDS011;8614;48.522;9.206;2023-06-10T00:52:58;7.33;;;6.57;;
16994;SDS011;8614;48.522;9.206;2023-06-10T00:55:25;7.50;;;6.80;;
16994;SDS011;8614;48.522;9.206;2023-06-10T00:57:52;7.73;;;6.80;;
16994;SDS011;8614;48.522;9.206;2023-06-10T01:00:19;7.60;;;6.87;;
16994;SDS011;8614;48.522;9.206;2023-06-10T01:02:47;7.80;;;6.70;;
16994;SDS011;8614;48.522;9.206;2023-06-10T01:05:14;8.77;;;7.50;;
16994;SDS011;8614;48.522;9.206;2023-06-10T01:07:43;7.70;;;7.00;;
16994;SDS011;8614;48.522;9.206;2023-06-10T01:10:22;8.53;;;6.90;;
16994;SDS011;8614;48.522;9.206;2023-06-10T01:12:58;9.50;;;7.43;;
16994;SDS011;8614;48.522;9.206;2023-06-10T01:15:29;7.90;;;7.10;;
16994;SDS011;8614;48.522;9.206;2023-06-10T01:17:57;8.67;;;7.30;;
16994;SDS011;8614;48.522;9.206;2023-06-10T01:20:25;7.60;;;6.80;;
16994;SDS011;8614;48.522;9.206;2023-06-10T01:22:54;9.20;;;7.97;;
16994;SDS011;8614;48.522;9.206;2023-06-10T01:25:23;8.50;;;7.60;;
16994;SDS011;8614;48.522;9.206;2023-06-10T01:27:53;8.80;;;7.93;;
16994;SDS011;8614;48.522;9.206;2023-06-10T01:30:26;8.50;;;7.70;;
16994;SDS011;8614;48.522;9.206;2023-06-10T01:32:55;8.20;;;7.40;;
16994;SDS011;8614;48.522;9.206;2023-06-10T01:35:25;8.53;;;7.63;;
16994;SDS011;8614;48.522;9.206;2023-06-10T01:37:56;8.40;;;7.60;;
16994;SDS011;8614;48.522;9.206;2023-06-10T01:40:26;8.53;;;7.63;;
16994;SDS011;8614;48.522;9.206;2023-06-10T01:42:55;8.47;;;7.63;;
16994;SDS011;8614;48.522;9.206;2023-06-10T01:45:21;8.80;;;7.90;;
16994;SDS011;8614;48.522;9.206;2023-06-10T01:47:48;8.47;;;7.67;;
16994;SDS011;8614;48.522;9.206;2023-06-10T01:50:15;8.67;;;7.83;;
16994;SDS011;8614;48.522;9.206;2023-06-10T01:52:42;9.33;;;8.33;;
16994;SDS011;8614;48.522;9.206;2023-06-10T01:55:10;9.57;;;8.63;;
16994;SDS011;8614;48.522;9.206;2023-06-10T01:57:39;10.87;;;8.67;;
16994;SDS011;8614;48.522;9.206;2023-06-10T02:00:06;9.47;;;8.47;;
16994;SDS011;8614;48.522;9.206;2023-06-10T02:02:40;8.37;;;7.50;;
16994;SDS011;8614;48.522;9.206;2023-06-10T02:05:07;8.93;;;8.00;;
16994;SDS011;8614;48.522;9.206;2023-06-10T02:07:34;8.40;;;7.53;;
16994;SDS011;8614;48.522;9.206;2023-06-10T02:10:00;9.77;;;8.30;;
16994;SDS011;8614;48.522;9.206;2023-06-10T02:12:29;7.83;;;7.03;;
16994;SDS011;8614;48.522;9.206;2023-06-10T02:14:56;9.07;;;8.10;;
16994;SDS011;8614;48.522;9.206;2023-06-10T02:17:23;9.10;;;7.40;;
16994;SDS011;8614;48.522;9.206;2023-06-10T02:19:50;8.23;;;7.37;;
16994;SDS011;8614;48.522;9.206;2023-06-10T02:22:20;8.43;;;7.33;;
16994;SDS011;8614;48.522;9.206;2023-06-10T02:24:47;9.93;;;7.43;;
16994;SDS011;8614;48.522;9.206;2023-06-10T02:27:14;9.27;;;7.90;;
16994;SDS011;8614;48.522;9.206;2023-06-10T02:29:42;8.77;;;7.87;;
16994;SDS011;8614;48.522;9.206;2023-06-10T02:32:10;8.63;;;7.47;;
16994;SDS011;8614;48.522;9.206;2023-06-10T02:34:37;8.57;;;7.67;;
16994;SDS011;8614;48.522;9.206;2023-06-10T02:37:05;9.50;;;8.13;;
16994;SDS011;8614;48.522;9.206;2023-06-10T02:39:32;9.33;;;7.60;;
16994;SDS011;8614;48.522;9.206;2023-06-10T02:42:01;9.93;;;9.03;;
16994;SDS011;8614;48.522;9.206;2023-06-10T02:44:28;9.67;;;8.77;;
16994;SDS011;8614;48.522;9.206;2023-06-10T02:46:56;10.30;;;9.37;;
16994;SDS011;8614;48.522;9.206;2023-06-10T02:49:23;8.97;;;8.07;;
16994;SDS011;8614;48.522;9.206;2023-06-10T02:51:53;8.63;;;7.73;;
16994;SDS011;8614;48.522;9.206;2023-06-10T02:54:20;8.97;;;8.07;;
16994;SDS011;8614;48.522;9.206;2023-06-10T02:56:48;11.23;;;10.13;;
16994;SDS011;8614;48.522;9.206;2023-06-10T02:59:20;10.07;;;9.07;;
16994;SDS011;8614;48.522;9.206;2023-06-10T03:01:46;9.23;;;8.37;;
16994;SDS011;8614;48.522;9.206;2023-06-10T03:04:15;9.83;;;8.87;;
16994;SDS011;8614;48.522;9.206;2023-06-10T03:06:51;9.53;;;8.73;;
16994;SDS011;8614;48.522;9.206;2023-06-10T03:09:23;10.80;;;9.70;;
16994;SDS011;8614;48.522;9.206;2023-06-10T03:11:56;11.40;;;10.20;;
16994;SDS011;8614;48.522;9.206;2023-06-10T03:14:24;10.33;;;9.10;;
16994;SDS011;8614;48.522;9.206;2023-06-10T03:16:52;11.27;;;10.17;;
16994;SDS011;8614;48.522;9.206;2023-06-10T03:19:23;11.20;;;10.20;;
16994;SDS011;8614;48.522;9.206;2023-06-10T03:21:58;11.43;;;10.30;;
16994;SDS011;8614;48.522;9.206;2023-06-10T03:24:36;12.30;;;11.10;;
16994;SDS011;8614;48.522;9.206;2023-06-10T03:27:07;11.33;;;10.23;;
16994;SDS011;8614;48.522;9.206;2023-06-10T03:29:36;11.10;;;10.00;;
16994;SDS011;8614;48.522;9.206;2023-06-10T03:32:05;11.00;;;10.00;;
16994;SDS011;8614;48.522;9.206;2023-06-10T03:34:35;11.10;;;10.03;;
16994;SDS011;8614;48.522;9.206;2023-06-10T03:37:02;11.30;;;9.97;;
16994;SDS011;8614;48.522;9.206;2023-06-10T03:39:30;11.23;;;10.13;;
16994;SDS011;8614;48.522;9.206;2023-06-10T03:41:58;11.33;;;10.30;;
16994;SDS011;8614;48.522;9.206;2023-06-10T03:44:27;11.87;;;10.77;;
16994;SDS011;8614;48.522;9.206;2023-06-10T03:46:54;11.90;;;10.77;;
16994;SDS011;8614;48.522;9.206;2023-06-10T03:49:24;11.30;;;10.17;;
16994;SDS011;8614;48.522;9.206;2023-06-10T03:51:58;11.47;;;10.47;;
16994;SDS011;8614;48.522;9.206;2023-06-10T03:54:25;12.50;;;11.30;;
16994;SDS011;8614;48.522;9.206;2023-06-10T03:56:52;11.97;;;10.80;;
16994;SDS011;8614;48.522;9.206;2023-06-10T03:59:19;10.50;;;9.53;;
16994;SDS011;8614;48.522;9.206;2023-06-10T04:01:46;11.17;;;10.13;;
16994;SDS011;8614;48.522;9.206;2023-06-10T04:04:13;11.00;;;10.00;;
16994;SDS011;8614;48.522;9.206;2023-06-10T04:06:41;11.80;;;10.73;;
16994;SDS011;8614;48.522;9.206;2023-06-10T04:09:11;10.97;;;9.97;;
16994;SDS011;8614;48.522;9.206;2023-06-10T04:11:39;11.47;;;10.37;;
16994;SDS011;8614;48.522;9.206;2023-06-10T04:14:06;11.23;;;10.20;;
16994;SDS011;8614;48.522;9.206;2023-06-10T04:16:34;11.30;;;10.20;;
16994;SDS011;8614;48.522;9.206;2023-06-10T04:19:02;10.10;;;9.10;;
16994;SDS011;8614;48.522;9.206;2023-06-10T04:21:28;10.47;;;8.27;;
16994;SDS011;8614;48.522;9.206;2023-06-10T04:23:56;8.87;;;7.50;;
16994;SDS011;8614;48.522;9.206;2023-06-10T04:26:24;10.33;;;9.43;;
16994;SDS011;8614;48.522;9.206;2023-06-10T04:28:52;11.10;;;10.10;;
16994;SDS011;8614;48.522;9.206;2023-06-10T04:31:20;10.23;;;9.33;;
16994;SDS011;8614;48.522;9.206;2023-06-10T04:33:47;11.00;;;9.93;;
16994;SDS011;8614;48.522;9.206;2023-06-10T04:36:14;10.27;;;9.27;;
16994;SDS011;8614;48.522;9.206;2023-06-10T04:38:41;9.27;;;8.37;;
16994;SDS011;8614;48.522;9.206;2023-06-10T04:41:08;10.77;;;9.87;;
16994;SDS011;8614;48.522;9.206;2023-06-10T04:43:37;9.57;;;8.70;;
16994;SDS011;8614;48.522;9.206;2023-06-10T04:46:04;7.93;;;7.13;;
16994;SDS011;8614;48.522;9.206;2023-06-10T04:48:32;11.80;;;9.60;;
16994;SDS011;8614;48.522;9.206;2023-06-10T04:51:00;9.30;;;8.50;;
16994;SDS011;8614;48.522;9.206;2023-06-10T04:53:27;9.77;;;8.77;;
16994;SDS011;8614;48.522;9.206;2023-06-10T04:55:54;9.57;;;8.57;;
16994;SDS011;8614;48.522;9.206;2023-06-10T04:58:22;9.00;;;8.20;;
16994;SDS011;8614;48.522;9.206;2023-06-10T05:00:50;8.93;;;8.13;;
16994;SDS011;8614;48.522;9.206;2023-06-10T05:03:17;10.23;;;9.33;;
16994;SDS011;8614;48.522;9.206;2023-06-10T05:05:44;7.40;;;6.70;;
16994;SDS011;8614;48.522;9.206;2023-06-10T05:08:11;8.50;;;7.73;;
16994;SDS011;8614;48.522;9.206;2023-06-10T05:10:37;9.80;;;7.13;;
16994;SDS011;8614;48.522;9.206;2023-06-10T05:13:04;8.10;;;7.30;;
16994;SDS011;8614;48.522;9.206;2023-06-10T05:15:31;7.10;;;6.40;;
16994;SDS011;8614;48.522;9.206;2023-06-10T05:17:59;7.37;;;6.67;;
16994;SDS011;8614;48.522;9.206;2023-06-10T05:20:27;8.33;;;6.87;;
16994;SDS011;8614;48.522;9.206;2023-06-10T05:22:54;7.30;;;6.60;;
16994;SDS011;8614;48.522;9.206;2023-06-10T05:25:21;7.30;;;6.60;;
16994;SDS011;8614;48.522;9.206;2023-06-10T05:27:48;8.77;;;7.87;;
16994;SDS011;8614;48.522;9.206;2023-06-10T05:30:15;9.10;;;7.77;;
16994;SDS011;8614;48.522;9.206;2023-06-10T05:32:43;7.27;;;6.13;;
16994;SDS011;8614;48.522;9.206;2023-06-10T05:35:11;8.20;;;7.40;;
16994;SDS011;8614;48.522;9.206;2023-06-10T05:37:38;8.20;;;6.43;;
16994;SDS011;8614;48.522;9.206;2023-06-10T05:40:05;7.40;;;6.70;;
16994;SDS011;8614;48.522;9.206;2023-06-10T05:42:33;7.80;;;7.00;;
16994;SDS011;8614;48.522;9.206;2023-06-10T05:45:00;7.30;;;6.43;;
16994;SDS011;8614;48.522;9.206;2023-06-10T05:47:27;7.20;;;6.50;;
16994;SDS011;8614;48.522;9.206;2023-06-10T05:49:54;6.90;;;6.17;;
16994;SDS011;8614;48.522;9.206;2023-06-10T05:52:22;7.20;;;6.50;;
16994;SDS011;8614;48.522;9.206;2023-06-10T05:54:49;8.70;;;7.17;;
16994;SDS011;8614;48.522;9.206;2023-06-10T05:57:16;7.07;;;6.37;;
16994;SDS011;8614;48.522;9.206;2023-06-10T05:59:43;8.33;;;6.37;;
16994;SDS011;8614;48.522;9.206;2023-06-10T06:02:10;6.87;;;6.17;;
16994;SDS011;8614;48.522;9.206;2023-06-10T06:04:36;7.80;;;6.23;;
16994;SDS011;8614;48.522;9.206;2023-06-10T06:07:03;6.63;;;6.00;;
16994;SDS011;8614;48.522;9.206;2023-06-10T06:09:32;7.00;;;6.30;;
16994;SDS011;8614;48.522;9.206;2023-06-10T06:11:59;8.27;;;7.50;;
16994;SDS011;8614;48.522;9.206;2023-06-10T06:14:26;9.37;;;6.47;;
16994;SDS011;8614;48.522;9.206;2023-06-10T06:16:52;9.13;;;7.23;;
16994;SDS011;8614;48.522;9.206;2023-06-10T06:19:19;8.50;;;7.77;;
16994;SDS011;8614;48.522;9.206;2023-06-10T06:21:46;6.87;;;5.80;;
16994;SDS011;8614;48.522;9.206;2023-06-10T06:24:13;6.13;;;5.53;;
16994;SDS011;8614;48.522;9.206;2023-06-10T06:26:41;6.60;;;5.90;;
16994;SDS011;8614;48.522;9.206;2023-06-10T06:29:08;8.53;;;7.77;;
16994;SDS011;8614;48.522;9.206;2023-06-10T06:31:35;8.67;;;7.97;;
16994;SDS011;8614;48.522;9.206;2023-06-10T06:34:02;8.60;;;7.80;;
16994;SDS011;8614;48.522;9.206;2023-06-10T06:36:28;8.80;;;8.00;;
16994;SDS011;8614;48.522;9.206;2023-06-10T06:38:55;7.83;;;7.03;;
16994;SDS011;8614;48.522;9.206;2023-06-10T06:41:23;7.80;;;6.30;;
16994;SDS011;8614;48.522;9.206;2023-06-10T06:43:52;7.93;;;5.90;;
16994;SDS011;8614;48.522;9.206;2023-06-10T06:46:24;6.97;;;6.27;;
16994;SDS011;8614;48.522;9.206;2023-06-10T06:48:50;6.33;;;5.33;;
16994;SDS011;8614;48.522;9.206;2023-06-10T06:51:17;8.33;;;6.63;;
16994;SDS011;8614;48.522;9.206;2023-06-10T06:53:44;6.63;;;5.97;;
16994;SDS011;8614;48.522;9.206;2023-06-10T06:56:11;6.40;;;5.80;;
16994;SDS011;8614;48.522;9.206;2023-06-10T06:58:38;7.00;;;5.90;;
16994;SDS011;8614;48.522;9.206;2023-06-10T07:01:06;6.60;;;5.90;;
16994;SDS011;8614;48.522;9.206;2023-06-10T07:03:33;6.03;;;5.40;;
16994;SDS011;8614;48.522;9.206;2023-06-10T07:06:00;7.07;;;5.87;;
16994;SDS011;8614;48.522;9.206;2023-06-10T07:08:27;5.53;;;5.03;;
16994;SDS011;8614;48.522;9.206;2023-06-10T07:10:53;6.43;;;5.80;;
16994;SDS011;8614;48.522;9.206;2023-06-10T07:13:20;7.83;;;5.97;;
16994;SDS011;8614;48.522;9.206;2023-06-10T07:15:47;6.80;;;6.13;;
16994;SDS011;8614;48.522;9.206;2023-06-10T07:18:16;6.77;;;5.93;;
16994;SDS011;8614;48.522;9.206;2023-06-10T07:20:43;7.83;;;5.90;;
16994;SDS011;8614;48.522;9.206;2023-06-10T07:23:09;5.97;;;5.20;;
16994;SDS011;8614;48.522;9.206;2023-06-10T07:25:36;6.97;;;5.67;;
16994;SDS011;8614;48.522;9.206;2023-06-10T07:28:03;10.50;;;6.03;;
16994;SDS011;8614;48.522;9.206;2023-06-10T07:30:30;5.97;;;5.37;;
16994;SDS011;8614;48.522;9.206;2023-06-10T07:32:57;5.97;;;5.33;;
16994;SDS011;8614;48.522;9.206;2023-06-10T07:35:25;6.60;;;5.47;;
16994;SDS011;8614;48.522;9.206;2023-06-10T07:37:52;7.27;;;5.00;;
16994;SDS011;8614;48.522;9.206;2023-06-10T07:40:18;6.30;;;5.70;;
16994;SDS011;8614;48.522;9.206;2023-06-10T07:42:45;5.63;;;5.13;;
16994;SDS011;8614;48.522;9.206;2023-06-10T07:45:12;6.03;;;5.43;;
16994;SDS011;8614;48.522;9.206;2023-06-10T07:47:39;6.00;;;5.40;;
16994;SDS011;8614;48.522;9.206;2023-06-10T07:50:06;5.83;;;5.20;;
16994;SDS011;8614;48.522;9.206;2023-06-10T07:52:34;6.03;;;5.43;;
16994;SDS011;8614;48.522;9.206;2023-06-10T07:55:02;5.67;;;5.17;;
16994;SDS011;8614;48.522;9.206;2023-06-10T07:57:30;5.70;;;4.93;;
16994;SDS011;8614;48.522;9.206;2023-06-10T07:59:59;5.63;;;5.03;;
16994;SDS011;8614;48.522;9.206;2023-06-10T08:02:37;5.90;;;4.93;;
16994;SDS011;8614;48.522;9.206;2023-06-10T08:05:05;6.13;;;5.53;;
16994;SDS011;8614;48.522;9.206;2023-06-10T08:07:32;8.00;;;7.30;;
16994;SDS011;8614;48.522;9.206;2023-06-10T08:10:00;6.57;;;5.87;;
16994;SDS011;8614;48.522;9.206;2023-06-10T08:12:27;8.07;;;5.23;;
16994;SDS011;8614;48.522;9.206;2023-06-10T08:14:54;6.13;;;5.53;;
16994;SDS011;8614;48.522;9.206;2023-06-10T08:17:21;6.43;;;5.83;;
16994;SDS011;8614;48.522;9.206;2023-06-10T08:19:48;6.83;;;6.13;;
16994;SDS011;8614;48.522;9.206;2023-06-10T08:22:15;6.60;;;6.00;;
16994;SDS011;8614;48.522;9.206;2023-06-10T08:24:42;6.63;;;5.93;;
16994;SDS011;8614;48.522;9.206;2023-06-10T08:27:10;7.20;;;6.50;;
16994;SDS011;8614;48.522;9.206;2023-06-10T08:29:37;6.77;;;6.17;;
16994;SDS011;8614;48.522;9.206;2023-06-10T08:32:04;5.93;;;5.43;;
16994;SDS011;8614;48.522;9.206;2023-06-10T08:34:33;4.83;;;4.43;;
16994;SDS011;8614;48.522;9.206;2023-06-10T08:37:00;5.80;;;5.20;;
16994;SDS011;8614;48.522;9.206;2023-06-10T08:39:27;5.80;;;5.27;;
16994;SDS011;8614;48.522;9.206;2023-06-10T08:42:00;6.80;;;6.20;;
16994;SDS011;8614;48.522;9.206;2023-06-10T08:44:32;7.33;;;5.63;;
16994;SDS011;8614;48.522;9.206;2023-06-10T08:47:05;6.60;;;6.00;;
16994;SDS011;8614;48.522;9.206;2023-06-10T08:49:38;5.93;;;5.43;;
16994;SDS011;8614;48.522;9.206;2023-06-10T08:52:09;6.00;;;5.40;;
16994;SDS011;8614;48.522;9.206;2023-06-10T08:54:40;7.07;;;6.40;;
16994;SDS011;8614;48.522;9.206;2023-06-10T08:57:09;6.33;;;5.73;;
16994;SDS011;8614;48.522;9.206;2023-06-10T08:59:37;5.13;;;4.73;;
16994;SDS011;8614;48.522;9.206;2023-06-10T09:02:05;5.73;;;5.13;;
16994;SDS011;8614;48.522;9.206;2023-06-10T09:04:34;5.27;;;4.77;;
16994;SDS011;8614;48.522;9.206;2023-06-10T09:07:02;6.50;;;5.90;;
16994;SDS011;8614;48.522;9.206;2023-06-10T09:09:31;6.40;;;5.70;;
16994;SDS011;8614;48.522;9.206;2023-06-10T09:12:00;5.77;;;5.27;;
16994;SDS011;8614;48.522;9.206;2023-06-10T09:14:27;5.63;;;5.13;;
16994;SDS011;8614;48.522;9.206;2023-06-10T09:16:55;5.10;;;4.70;;
16994;SDS011;8614;48.522;9.206;2023-06-10T09:19:22;5.60;;;5.00;;
16994;SDS011;8614;48.522;9.206;2023-06-10T09:21:51;4.80;;;4.30;;
16994;SDS011;8614;48.522;9.206;2023-06-10T09:24:18;6.97;;;6.37;;
16994;SDS011;8614;48.522;9.206;2023-06-10T09:26:44;6.77;;;6.17;;
16994;SDS011;8614;48.522;9.206;2023-06-10T09:29:11;5.00;;;4.50;;
16994;SDS011;8614;48.522;9.206;2023-06-10T09:31:39;7.47;;;6.73;;
16994;SDS011;8614;48.522;9.206;2023-06-10T09:34:08;6.57;;;6.07;;
16994;SDS011;8614;48.522;9.206;2023-06-10T09:36:36;7.63;;;7.03;;
16994;SDS011;8614;48.522;9.206;2023-06-10T09:39:04;7.10;;;6.60;;
16994;SDS011;8614;48.522;9.206;2023-06-10T09:41:40;7.43;;;6.57;;
16994;SDS011;8614;48.522;9.206;2023-06-10T09:44:09;6.60;;;6.10;;
16994;SDS011;8614;48.522;9.206;2023-06-10T09:46:39;6.93;;;6.33;;
16994;SDS011;8614;48.522;9.206;2023-06-10T09:49:05;7.10;;;6.53;;
16994;SDS011;8614;48.522;9.206;2023-06-10T09:51:34;6.67;;;6.17;;
16994;SDS011;8614;48.522;9.206;2023-06-10T09:54:01;6.50;;;6.00;;
16994;SDS011;8614;48.522;9.206;2023-06-10T09:56:32;7.03;;;6.40;;
16994;SDS011;8614;48.522;9.206;2023-06-10T09:59:00;5.30;;;4.90;;
16994;SDS011;8614;48.522;9.206;2023-06-10T10:01:28;4.60;;;4.20;;
16994;SDS011;8614;48.522;9.206;2023-06-10T10:03:56;7.20;;;6.70;;
16994;SDS011;8614;48.522;9.206;2023-06-10T10:06:23;5.70;;;5.23;;
16994;SDS011;8614;48.522;9.206;2023-06-10T10:08:52;4.00;;;3.70;;
16994;SDS011;8614;48.522;9.206;2023-06-10T10:11:20;4.20;;;3.80;;
16994;SDS011;8614;48.522;9.206;2023-06-10T10:13:48;4.80;;;4.27;;
16994;SDS011;8614;48.522;9.206;2023-06-10T10:16:16;7.03;;;6.47;;
16994;SDS011;8614;48.522;9.206;2023-06-10T10:18:46;7.70;;;7.00;;
16994;SDS011;8614;48.522;9.206;2023-06-10T10:21:15;7.20;;;6.70;;
16994;SDS011;8614;48.522;9.206;2023-06-10T10:23:50;4.37;;;4.00;;
16994;SDS011;8614;48.522;9.206;2023-06-10T10:26:25;4.37;;;3.97;;
16994;SDS011;8614;48.522;9.206;2023-06-10T10:28:55;4.60;;;4.20;;
16994;SDS011;8614;48.522;9.206;2023-06-10T10:31:28;4.03;;;3.63;;
16994;SDS011;8614;48.522;9.206;2023-06-10T10:33:59;5.00;;;3.70;;
16994;SDS011;8614;48.522;9.206;2023-06-10T10:36:27;4.50;;;4.10;;
16994;SDS011;8614;48.522;9.206;2023-06-10T10:38:56;4.23;;;3.83;;
16994;SDS011;8614;48.522;9.206;2023-06-10T10:41:23;4.27;;;3.87;;
16994;SDS011;8614;48.522;9.206;2023-06-10T10:43:52;5.43;;;4.60;;
16994;SDS011;8614;48.522;9.206;2023-06-10T10:46:19;5.80;;;4.77;;
16994;SDS011;8614;48.522;9.206;2023-06-10T10:48:47;6.17;;;4.57;;
16994;SDS011;8614;48.522;9.206;2023-06-10T10:51:18;5.80;;;4.00;;
16994;SDS011;8614;48.522;9.206;2023-06-10T10:53:50;4.43;;;3.70;;
16994;SDS011;8614;48.522;9.206;2023-06-10T10:56:38;4.90;;;4.00;;
16994;SDS011;8614;48.522;9.206;2023-06-10T10:59:05;9.27;;;4.50;;
16994;SDS011;8614;48.522;9.206;2023-06-10T11:01:40;4.30;;;3.90;;
16994;SDS011;8614;48.522;9.206;2023-06-10T11:04:10;4.43;;;4.03;;
16994;SDS011;8614;48.522;9.206;2023-06-10T11:06:37;4.10;;;3.80;;
16994;SDS011;8614;48.522;9.206;2023-06-10T11:11:55;4.70;;;4.10;;
16994;SDS011;8614;48.522;9.206;2023-06-10T11:14:26;3.80;;;3.50;;
16994;SDS011;8614;48.522;9.206;2023-06-10T11:16:56;5.10;;;4.00;;
16994;SDS011;8614;48.522;9.206;2023-06-10T11:19:33;4.73;;;4.03;;
16994;SDS011;8614;48.522;9.206;2023-06-10T11:22:01;5.03;;;4.37;;
16994;SDS011;8614;48.522;9.206;2023-06-10T11:24:31;6.03;;;4.13;;
16994;SDS011;8614;48.522;9.206;2023-06-10T11:32:43;4.30;;;3.90;;
16994;SDS011;8614;48.522;9.206;2023-06-10T11:35:10;4.20;;;3.90;;
16994;SDS011;8614;48.522;9.206;2023-06-10T11:37:37;4.00;;;3.70;;
16994;SDS011;8614;48.522;9.206;2023-06-10T11:40:06;7.23;;;4.07;;
16994;SDS011;8614;48.522;9.206;2023-06-10T11:42:38;6.17;;;5.57;;
16994;SDS011;8614;48.522;9.206;2023-06-10T11:45:06;6.17;;;5.70;;
16994;SDS011;8614;48.522;9.206;2023-06-10T11:47:34;6.33;;;5.63;;
16994;SDS011;8614;48.522;9.206;2023-06-10T11:50:01;6.67;;;6.17;;
16994;SDS011;8614;48.522;9.206;2023-06-10T11:52:28;6.13;;;5.63;;
16994;SDS011;8614;48.522;9.206;2023-06-10T11:54:57;6.00;;;4.80;;
16994;SDS011;8614;48.522;9.206;2023-06-10T11:57:25;7.67;;;7.07;;
16994;SDS011;8614;48.522;9.206;2023-06-10T11:59:52;7.77;;;7.17;;
16994;SDS011;8614;48.522;9.206;2023-06-10T12:02:19;7.60;;;7.00;;
16994;SDS011;8614;48.522;9.206;2023-06-10T12:04:47;6.93;;;6.40;;
16994;SDS011;8614;48.522;9.206;2023-06-10T12:07:17;5.30;;;4.23;;
16994;SDS011;8614;48.522;9.206;2023-06-10T12:09:45;6.40;;;5.90;;
16994;SDS011;8614;48.522;9.206;2023-06-10T12:12:12;7.47;;;6.87;;
16994;SDS011;8614;48.522;9.206;2023-06-10T12:14:53;7.70;;;7.00;;
16994;SDS011;8614;48.522;9.206;2023-06-10T12:17:21;7.00;;;6.50;;
16994;SDS011;8614;48.522;9.206;2023-06-10T12:19:49;7.47;;;6.90;;
16994;SDS011;8614;48.522;9.206;2023-06-10T12:22:16;5.20;;;3.93;;
16994;SDS011;8614;48.522;9.206;2023-06-10T12:24:44;4.47;;;3.87;;
16994;SDS011;8614;48.522;9.206;2023-06-10T12:27:12;7.10;;;6.00;;
16994;SDS011;8614;48.522;9.206;2023-06-10T12:29:39;7.53;;;6.93;;
16994;SDS011;8614;48.522;9.206;2023-06-10T12:32:17;7.80;;;7.00;;
16994;SDS011;8614;48.522;9.206;2023-06-10T12:34:45;4.30;;;3.90;;
16994;SDS011;8614;48.522;9.206;2023-06-10T12:37:12;7.13;;;6.53;;
16994;SDS011;8614;48.522;9.206;2023-06-10T12:39:39;6.73;;;6.23;;
16994;SDS011;8614;48.522;9.206;2023-06-10T12:42:08;6.90;;;6.30;;
16994;SDS011;8614;48.522;9.206;2023-06-10T12:44:39;7.00;;;6.50;;
16994;SDS011;8614;48.522;9.206;2023-06-10T12:47:07;7.17;;;6.57;;
16994;SDS011;8614;48.522;9.206;2023-06-10T12:49:36;5.80;;;5.33;;
16994;SDS011;8614;48.522;9.206;2023-06-10T12:52:03;5.40;;;5.00;;
16994;SDS011;8614;48.522;9.206;2023-06-10T12:54:31;6.97;;;6.47;;
16994;SDS011;8614;48.522;9.206;2023-06-10T12:56:58;7.30;;;6.80;;
16994;SDS011;8614;48.522;9.206;2023-06-10T12:59:24;6.87;;;6.37;;
16994;SDS011;8614;48.522;9.206;2023-06-10T13:01:52;7.33;;;6.83;;
16994;SDS011;8614;48.522;9.206;2023-06-10T13:04:19;6.80;;;6.30;;
16994;SDS011;8614;48.522;9.206;2023-06-10T13:06:48;6.70;;;6.10;;
16994;SDS011;8614;48.522;9.206;2023-06-10T13:09:15;6.90;;;6.40;;
16994;SDS011;8614;48.522;9.206;2023-06-10T13:11:42;7.27;;;6.67;;
16994;SDS011;8614;48.522;9.206;2023-06-10T13:14:10;6.83;;;6.33;;
16994;SDS011;8614;48.522;9.206;2023-06-10T13:16:36;6.10;;;5.60;;
16994;SDS011;8614;48.522;9.206;2023-06-10T13:19:04;6.97;;;6.37;;
16994;SDS011;8614;48.522;9.206;2023-06-10T13:21:31;7.13;;;6.60;;
16994;SDS011;8614;48.522;9.206;2023-06-10T13:24:00;6.40;;;5.90;;
16994;SDS011;8614;48.522;9.206;2023-06-10T13:26:27;6.20;;;5.80;;
16994;SDS011;8614;48.522;9.206;2023-06-10T13:28:54;6.53;;;5.93;;
16994;SDS011;8614;48.522;9.206;2023-06-10T13:31:21;5.07;;;4.67;;
16994;SDS011;8614;48.522;9.206;2023-06-10T13:33:47;6.47;;;5.97;;
16994;SDS011;8614;48.522;9.206;2023-06-10T13:36:14;6.40;;;5.87;;
16994;SDS011;8614;48.522;9.206;2023-06-10T13:38:41;6.20;;;5.70;;
16994;SDS011;8614;48.522;9.206;2023-06-10T13:41:09;5.97;;;5.57;;
16994;SDS011;8614;48.522;9.206;2023-06-10T13:43:37;7.10;;;6.40;;
16994;SDS011;8614;48.522;9.206;2023-06-10T13:46:04;7.00;;;6.50;;
16994;SDS011;8614;48.522;9.206;2023-06-10T13:48:31;6.47;;;6.00;;
16994;SDS011;8614;48.522;9.206;2023-06-10T13:50:58;6.50;;;6.00;;
16994;SDS011;8614;48.522;9.206;2023-06-10T13:53:25;6.73;;;6.23;;
16994;SDS011;8614;48.522;9.206;2023-06-10T13:55:52;6.80;;;6.30;;
16994;SDS011;8614;48.522;9.206;2023-06-10T13:58:20;7.07;;;6.40;;
16994;SDS011;8614;48.522;9.206;2023-06-10T14:00:47;5.50;;;4.80;;
16994;SDS011;8614;48.522;9.206;2023-06-10T14:03:13;6.77;;;6.17;;
16994;SDS011;8614;48.522;9.206;2023-06-10T14:05:40;7.67;;;7.00;;
16994;SDS011;8614;48.522;9.206;2023-06-10T14:08:07;4.03;;;3.63;;
16994;SDS011;8614;48.522;9.206;2023-06-10T14:10:34;4.27;;;3.87;;
16994;SDS011;8614;48.522;9.206;2023-06-10T14:13:01;5.47;;;4.17;;
16994;SDS011;8614;48.522;9.206;2023-06-10T14:15:29;6.83;;;4.03;;
16994;SDS011;8614;48.522;9.206;2023-06-10T14:17:57;3.93;;;3.63;;
16994;SDS011;8614;48.522;9.206;2023-06-10T14:20:24;4.17;;;3.40;;
16994;SDS011;8614;48.522;9.206;2023-06-10T14:22:52;4.73;;;3.67;;
16994;SDS011;8614;48.522;9.206;2023-06-10T14:25:18;3.70;;;3.30;;
16994;SDS011;8614;48.522;9.206;2023-06-10T14:27:45;7.17;;;6.53;;
16994;SDS011;8614;48.522;9.206;2023-06-10T14:30:12;6.50;;;6.00;;
16994;SDS011;8614;48.522;9.206;2023-06-10T14:32:41;7.03;;;6.10;;
16994;SDS011;8614;48.522;9.206;2023-06-10T14:35:08;7.00;;;6.50;;
16994;SDS011;8614;48.522;9.206;2023-06-10T14:37:35;3.50;;;3.20;;
16994;SDS011;8614;48.522;9.206;2023-06-10T14:40:03;6.60;;;6.10;;
16994;SDS011;8614;48.522;9.206;2023-06-10T14:42:30;5.93;;;5.43;;
16994;SDS011;8614;48.522;9.206;2023-06-10T14:44:58;5.10;;;4.70;;
16994;SDS011;8614;48.522;9.206;2023-06-10T14:47:24;6.03;;;5.53;;
16994;SDS011;8614;48.522;9.206;2023-06-10T14:49:52;5.87;;;5.43;;
16994;SDS011;8614;48.522;9.206;2023-06-10T14:52:19;6.97;;;6.33;;
16994;SDS011;8614;48.522;9.206;2023-06-10T14:54:46;7.27;;;6.67;;
16994;SDS011;8614;48.522;9.206;2023-06-10T14:57:13;9.80;;;9.00;;
16994;SDS011;8614;48.522;9.206;2023-06-10T14:59:40;7.23;;;6.73;;
16994;SDS011;8614;48.522;9.206;2023-06-10T15:02:07;6.60;;;4.10;;
16994;SDS011;8614;48.522;9.206;2023-06-10T15:04:33;4.60;;;4.20;;
16994;SDS011;8614;48.522;9.206;2023-06-10T15:07:02;4.27;;;3.90;;
16994;SDS011;8614;48.522;9.206;2023-06-10T15:09:28;4.40;;;3.87;;
16994;SDS011;8614;48.522;9.206;2023-06-10T15:11:57;3.83;;;3.53;;